sensor_id;sensor_type;location;lat;lon;timestamp;pressure;altitude;pressure_sealevel;temperature;humidity
22753;BME280;11543;43.144;24.684;2023-12-14T00:01:31;97693.50;;;10.07;73.34
22753;BME280;11543;43.144;24.684;2023-12-14T00:03:57;97694.06;;;10.03;73.19
22753;BME280;11543;43.144;24.684;2023-12-14T00:06:22;97684.88;;;9.97;73.03
22753;BME280;11543;43.144;24.684;2023-12-14T00:08:48;97694.88;;;10.03;72.90
22753;BME280;11543;43.144;24.684;2023-12-14T00:11:13;97683.81;;;10.06;73.31
22753;BME280;11543;43.144;24.684;2023-12-14T00:13:39;97703.81;;;10.18;73.39
22753;BME280;11543;43.144;24.684;2023-12-14T00:16:05;97706.63;;;10.25;73.33
22753;BME280;11543;43.144;24.684;2023-12-14T00:18:30;97702.75;;;10.28;73.25
22753;BME280;11543;43.144;24.684;2023-12-14T00:20:56;97697.75;;;10.25;73.07
22753;BME280;11543;43.144;24.684;2023-12-14T00:23:22;97706.19;;;10.36;73.04
22753;BME280;11543;43.144;24.684;2023-12-14T00:25:48;97685.72;;;10.20;72.90
22753;BME280;11543;43.144;24.684;2023-12-14T00:28:13;97717.94;;;10.35;72.88
22753;BME280;11543;43.144;24.684;2023-12-14T00:30:39;97707.75;;;10.31;72.98
22753;BME280;11543;43.144;24.684;2023-12-14T00:33:04;97719.09;;;10.41;72.93
22753;BME280;11543;43.144;24.684;2023-12-14T00:35:30;97703.69;;;10.35;72.73
22753;BME280;11543;43.144;24.684;2023-12-14T00:37:55;97696.66;;;10.34;73.07
22753;BME280;11543;43.144;24.684;2023-12-14T00:40:21;97681.31;;;10.28;73.03
22753;BME280;11543;43.144;24.684;2023-12-14T00:42:47;97681.31;;;10.28;72.80
22753;BME280;11543;43.144;24.684;2023-12-14T00:45:12;97685.00;;;10.27;72.85
22753;BME280;11543;43.144;24.684;2023-12-14T00:47:38;97673.50;;;10.18;72.79
22753;BME280;11543;43.144;24.684;2023-12-14T00:50:03;97684.34;;;10.25;72.87
22753;BME280;11543;43.144;24.684;2023-12-14T00:52:29;97687.97;;;10.32;72.69
22753;BME280;11543;43.144;24.684;2023-12-14T00:54:55;97695.94;;;10.40;72.69
22753;BME280;11543;43.144;24.684;2023-12-14T00:57:20;97693.44;;;10.38;72.61
22753;BME280;11543;43.144;24.684;2023-12-14T00:59:46;97692.78;;;10.36;72.37
22753;BME280;11543;43.144;24.684;2023-12-14T01:02:12;97700.00;;;10.36;72.47
22753;BME280;11543;43.144;24.684;2023-12-14T01:04:37;97696.66;;;10.34;72.56
22753;BME280;11543;43.144;24.684;2023-12-14T01:07:03;97698.31;;;10.35;72.20
22753;BME280;11543;43.144;24.684;2023-12-14T01:09:29;97673.31;;;10.19;72.41
22753;BME280;11543;43.144;24.684;2023-12-14T01:11:54;97675.94;;;10.28;72.36
22753;BME280;11543;43.144;24.684;2023-12-14T01:14:20;97656.28;;;10.12;72.57
22753;BME280;11543;43.144;24.684;2023-12-14T01:16:45;97672.25;;;10.29;72.73
22753;BME280;11543;43.144;24.684;2023-12-14T01:19:11;97659.03;;;10.27;72.63
22753;BME280;11543;43.144;24.684;2023-12-14T01:21:36;97658.19;;;10.27;72.57
22753;BME280;11543;43.144;24.684;2023-12-14T01:24:02;97680.22;;;10.37;72.45
22753;BME280;11543;43.144;24.684;2023-12-14T01:26:27;97672.72;;;10.32;72.46
22753;BME280;11543;43.144;24.684;2023-12-14T01:28:53;97675.94;;;10.28;72.47
22753;BME280;11543;43.144;24.684;2023-12-14T01:31:19;97665.13;;;10.21;72.32
22753;BME280;11543;43.144;24.684;2023-12-14T01:33:48;97666.28;;;10.18;72.69
22753;BME280;11543;43.144;24.684;2023-12-14T01:36:22;97670.22;;;10.31;72.68
22753;BME280;11543;43.144;24.684;2023-12-14T01:38:48;97676.41;;;10.31;72.62
22753;BME280;11543;43.144;24.684;2023-12-14T01:41:14;97686.41;;;10.37;72.58
22753;BME280;11543;43.144;24.684;2023-12-14T01:43:39;97665.78;;;10.38;72.70
22753;BME280;11543;43.144;24.684;2023-12-14T01:46:05;97642.94;;;10.27;72.47
22753;BME280;11543;43.144;24.684;2023-12-14T01:48:30;97635.09;;;10.26;72.66
22753;BME280;11543;43.144;24.684;2023-12-14T01:50:56;97666.75;;;10.45;72.30
22753;BME280;11543;43.144;24.684;2023-12-14T01:53:22;97659.59;;;10.37;72.63
22753;BME280;11543;43.144;24.684;2023-12-14T01:55:47;97661.94;;;10.40;72.28
22753;BME280;11543;43.144;24.684;2023-12-14T01:58:13;97633.88;;;10.28;72.60
22753;BME280;11543;43.144;24.684;2023-12-14T02:03:23;97646.94;;;10.31;72.88
22753;BME280;11543;43.144;24.684;2023-12-14T02:05:48;97646.09;;;10.31;72.84
22753;BME280;11543;43.144;24.684;2023-12-14T02:08:14;97635.56;;;10.29;72.81
22753;BME280;11543;43.144;24.684;2023-12-14T02:10:39;97625.66;;;10.30;72.87
22753;BME280;11543;43.144;24.684;2023-12-14T02:13:05;97612.63;;;10.27;72.93
22753;BME280;11543;43.144;24.684;2023-12-14T02:15:30;97642.31;;;10.40;72.81
22753;BME280;11543;43.144;24.684;2023-12-14T02:17:56;97618.63;;;10.29;73.02
22753;BME280;11543;43.144;24.684;2023-12-14T02:20:21;97607.31;;;10.18;72.84
22753;BME280;11543;43.144;24.684;2023-12-14T02:22:56;97598.63;;;10.16;72.68
22753;BME280;11543;43.144;24.684;2023-12-14T02:25:23;97637.88;;;10.32;72.88
22753;BME280;11543;43.144;24.684;2023-12-14T02:27:49;97626.03;;;10.27;72.82
22753;BME280;11543;43.144;24.684;2023-12-14T02:30:16;97633.06;;;10.28;72.77
22753;BME280;11543;43.144;24.684;2023-12-14T02:32:41;97623.06;;;10.21;73.18
22753;BME280;11543;43.144;24.684;2023-12-14T02:35:07;97632.69;;;10.31;73.02
22753;BME280;11543;43.144;24.684;2023-12-14T02:37:34;97639.00;;;10.38;73.03
22753;BME280;11543;43.144;24.684;2023-12-14T02:40:03;97624.84;;;10.29;72.91
22753;BME280;11543;43.144;24.684;2023-12-14T02:42:29;97617.91;;;10.35;72.79
22753;BME280;11543;43.144;24.684;2023-12-14T02:44:56;97598.22;;;10.28;72.69
22753;BME280;11543;43.144;24.684;2023-12-14T02:47:21;97589.09;;;10.14;72.88
22753;BME280;11543;43.144;24.684;2023-12-14T02:49:46;97586.25;;;10.15;72.87
22753;BME280;11543;43.144;24.684;2023-12-14T02:52:12;97621.97;;;10.31;72.96
22753;BME280;11543;43.144;24.684;2023-12-14T02:54:39;97620.31;;;10.30;72.83
22753;BME280;11543;43.144;24.684;2023-12-14T02:57:04;97616.50;;;10.24;73.01
22753;BME280;11543;43.144;24.684;2023-12-14T02:59:30;97629.44;;;10.20;73.03
22753;BME280;11543;43.144;24.684;2023-12-14T03:01:55;97603.78;;;10.03;72.90
22753;BME280;11543;43.144;24.684;2023-12-14T03:04:21;97604.88;;;9.94;72.77
22753;BME280;11543;43.144;24.684;2023-12-14T03:06:46;97590.25;;;9.82;73.00
22753;BME280;11543;43.144;24.684;2023-12-14T03:09:12;97597.38;;;9.89;73.15
22753;BME280;11543;43.144;24.684;2023-12-14T03:11:37;97618.19;;;10.02;73.06
22753;BME280;11543;43.144;24.684;2023-12-14T03:14:03;97616.34;;;10.03;73.15
22753;BME280;11543;43.144;24.684;2023-12-14T03:16:28;97612.47;;;10.05;73.09
22753;BME280;11543;43.144;24.684;2023-12-14T03:18:54;97606.75;;;10.08;73.24
22753;BME280;11543;43.144;24.684;2023-12-14T03:21:22;97604.06;;;10.08;73.08
22753;BME280;11543;43.144;24.684;2023-12-14T03:23:47;97590.75;;;10.00;72.96
22753;BME280;11543;43.144;24.684;2023-12-14T03:26:13;97589.38;;;10.04;73.26
22753;BME280;11543;43.144;24.684;2023-12-14T03:28:38;97604.97;;;10.24;73.34
22753;BME280;11543;43.144;24.684;2023-12-14T03:31:04;97602.94;;;10.26;73.31
22753;BME280;11543;43.144;24.684;2023-12-14T03:33:29;97611.25;;;10.31;73.26
22753;BME280;11543;43.144;24.684;2023-12-14T03:35:55;97618.19;;;10.40;73.30
22753;BME280;11543;43.144;24.684;2023-12-14T03:38:21;97597.09;;;10.37;72.96
22753;BME280;11543;43.144;24.684;2023-12-14T03:40:46;97594.91;;;10.40;72.83
22753;BME280;11543;43.144;24.684;2023-12-14T03:43:11;97564.44;;;10.18;72.53
22753;BME280;11543;43.144;24.684;2023-12-14T03:45:37;97611.09;;;10.47;72.35
22753;BME280;11543;43.144;24.684;2023-12-14T03:48:02;97587.22;;;10.23;72.43
22753;BME280;11543;43.144;24.684;2023-12-14T03:50:28;97599.78;;;10.37;72.24
22753;BME280;11543;43.144;24.684;2023-12-14T03:52:54;97599.22;;;10.27;71.88
22753;BME280;11543;43.144;24.684;2023-12-14T03:55:19;97591.78;;;9.99;72.10
22753;BME280;11543;43.144;24.684;2023-12-14T03:57:45;97617.84;;;10.05;72.63
22753;BME280;11543;43.144;24.684;2023-12-14T04:00:14;97609.88;;;9.97;72.49
22753;BME280;11543;43.144;24.684;2023-12-14T04:02:41;97603.94;;;9.87;72.83
22753;BME280;11543;43.144;24.684;2023-12-14T04:05:07;97609.25;;;10.10;73.13
22753;BME280;11543;43.144;24.684;2023-12-14T04:07:38;97604.00;;;10.16;73.11
22753;BME280;11543;43.144;24.684;2023-12-14T04:12:32;97622.53;;;10.03;73.10
22753;BME280;11543;43.144;24.684;2023-12-14T04:14:58;97609.16;;;10.03;73.26
22753;BME280;11543;43.144;24.684;2023-12-14T04:17:26;97620.72;;;10.18;73.18
22753;BME280;11543;43.144;24.684;2023-12-14T04:19:51;97587.44;;;9.98;73.05
22753;BME280;11543;43.144;24.684;2023-12-14T04:22:17;97601.75;;;10.05;73.18
22753;BME280;11543;43.144;24.684;2023-12-14T04:24:42;97597.69;;;10.09;73.28
22753;BME280;11543;43.144;24.684;2023-12-14T04:27:07;97613.66;;;10.26;73.27
22753;BME280;11543;43.144;24.684;2023-12-14T04:29:33;97637.69;;;10.34;73.04
22753;BME280;11543;43.144;24.684;2023-12-14T04:31:59;97639.00;;;10.38;72.82
22753;BME280;11543;43.144;24.684;2023-12-14T04:34:24;97620.59;;;10.35;72.83
22753;BME280;11543;43.144;24.684;2023-12-14T04:36:50;97639.53;;;10.33;72.90
22753;BME280;11543;43.144;24.684;2023-12-14T04:39:15;97630.16;;;10.14;72.30
22753;BME280;11543;43.144;24.684;2023-12-14T04:41:42;97623.06;;;10.21;72.33
22753;BME280;11543;43.144;24.684;2023-12-14T04:44:07;97629.53;;;10.27;72.42
22753;BME280;11543;43.144;24.684;2023-12-14T04:46:35;97594.72;;;10.04;72.43
22753;BME280;11543;43.144;24.684;2023-12-14T04:49:00;97618.53;;;10.22;72.54
22753;BME280;11543;43.144;24.684;2023-12-14T04:51:26;97630.47;;;10.34;72.45
22753;BME280;11543;43.144;24.684;2023-12-14T04:53:51;97620.22;;;10.23;72.12
22753;BME280;11543;43.144;24.684;2023-12-14T04:56:17;97621.41;;;10.20;72.35
22753;BME280;11543;43.144;24.684;2023-12-14T04:58:42;97618.31;;;10.09;72.09
22753;BME280;11543;43.144;24.684;2023-12-14T05:01:08;97623.72;;;10.38;71.99
22753;BME280;11543;43.144;24.684;2023-12-14T05:03:34;97638.28;;;10.44;72.15
22753;BME280;11543;43.144;24.684;2023-12-14T05:06:00;97593.28;;;10.16;72.19
22753;BME280;11543;43.144;24.684;2023-12-14T05:08:26;97628.03;;;10.47;71.99
22753;BME280;11543;43.144;24.684;2023-12-14T05:10:52;97637.44;;;10.43;71.88
22753;BME280;11543;43.144;24.684;2023-12-14T05:13:17;97621.38;;;10.43;71.88
22753;BME280;11543;43.144;24.684;2023-12-14T05:15:43;97636.06;;;10.47;71.73
22753;BME280;11543;43.144;24.684;2023-12-14T05:18:09;97627.44;;;10.37;71.38
22753;BME280;11543;43.144;24.684;2023-12-14T05:20:35;97630.25;;;10.44;71.39
22753;BME280;11543;43.144;24.684;2023-12-14T05:23:01;97624.56;;;10.39;71.40
22753;BME280;11543;43.144;24.684;2023-12-14T05:25:27;97623.50;;;10.48;71.82
22753;BME280;11543;43.144;24.684;2023-12-14T05:27:53;97618.50;;;10.45;71.67
22753;BME280;11543;43.144;24.684;2023-12-14T05:30:18;97630.81;;;10.54;71.58
22753;BME280;11543;43.144;24.684;2023-12-14T05:32:44;97630.16;;;10.52;71.69
22753;BME280;11543;43.144;24.684;2023-12-14T05:35:10;97633.06;;;10.28;71.33
22753;BME280;11543;43.144;24.684;2023-12-14T05:37:36;97626.81;;;10.12;71.44
22753;BME280;11543;43.144;24.684;2023-12-14T05:40:03;97635.44;;;9.85;71.97
22753;BME280;11543;43.144;24.684;2023-12-14T05:42:29;97625.88;;;9.68;72.23
22753;BME280;11543;43.144;24.684;2023-12-14T05:44:55;97638.00;;;9.55;72.56
22753;BME280;11543;43.144;24.684;2023-12-14T05:47:20;97654.66;;;9.66;72.31
22753;BME280;11543;43.144;24.684;2023-12-14T05:49:46;97649.38;;;9.57;72.91
22753;BME280;11543;43.144;24.684;2023-12-14T05:52:12;97658.00;;;9.68;73.39
22753;BME280;11543;43.144;24.684;2023-12-14T05:54:38;97685.53;;;9.76;73.37
22753;BME280;11543;43.144;24.684;2023-12-14T05:57:05;97657.41;;;9.57;73.12
22753;BME280;11543;43.144;24.684;2023-12-14T05:59:30;97687.88;;;9.48;73.42
22753;BME280;11543;43.144;24.684;2023-12-14T06:01:57;97676.88;;;9.43;73.96
22753;BME280;11543;43.144;24.684;2023-12-14T06:04:23;97697.72;;;9.56;74.19
22753;BME280;11543;43.144;24.684;2023-12-14T06:06:48;97685.31;;;9.63;73.99
22753;BME280;11543;43.144;24.684;2023-12-14T06:09:14;97706.09;;;9.84;73.71
22753;BME280;11543;43.144;24.684;2023-12-14T06:11:39;97719.53;;;9.76;73.87
22753;BME280;11543;43.144;24.684;2023-12-14T06:14:05;97728.41;;;9.76;73.75
22753;BME280;11543;43.144;24.684;2023-12-14T06:16:30;97758.69;;;9.77;73.78
22753;BME280;11543;43.144;24.684;2023-12-14T06:18:56;97762.13;;;9.63;73.96
22753;BME280;11543;43.144;24.684;2023-12-14T06:21:22;97777.69;;;9.20;73.24
22753;BME280;11543;43.144;24.684;2023-12-14T06:23:53;97796.66;;;8.86;73.99
22753;BME280;11543;43.144;24.684;2023-12-14T06:26:18;97801.19;;;8.53;74.46
22753;BME280;11543;43.144;24.684;2023-12-14T06:28:44;97798.13;;;8.31;75.29
22753;BME280;11543;43.144;24.684;2023-12-14T06:31:13;97813.16;;;8.24;75.41
22753;BME280;11543;43.144;24.684;2023-12-14T06:33:42;97828.91;;;8.44;75.18
22753;BME280;11543;43.144;24.684;2023-12-14T06:36:10;97835.25;;;8.35;74.89
22753;BME280;11543;43.144;24.684;2023-12-14T06:38:39;97836.53;;;8.22;74.95
22753;BME280;11543;43.144;24.684;2023-12-14T06:41:06;97835.19;;;8.02;75.10
22753;BME280;11543;43.144;24.684;2023-12-14T06:43:31;97839.63;;;7.85;75.52
22753;BME280;11543;43.144;24.684;2023-12-14T06:45:57;97850.19;;;7.61;75.96
22753;BME280;11543;43.144;24.684;2023-12-14T06:48:22;97850.97;;;7.45;76.15
22753;BME280;11543;43.144;24.684;2023-12-14T06:50:48;97882.63;;;7.40;76.35
22753;BME280;11543;43.144;24.684;2023-12-14T06:53:13;97887.31;;;7.12;76.46
22753;BME280;11543;43.144;24.684;2023-12-14T06:55:41;97891.38;;;6.98;77.30
22753;BME280;11543;43.144;24.684;2023-12-14T06:58:06;97878.78;;;7.09;77.45
22753;BME280;11543;43.144;24.684;2023-12-14T07:00:37;97884.97;;;7.43;77.24
22753;BME280;11543;43.144;24.684;2023-12-14T07:03:02;97893.78;;;7.70;77.26
22753;BME280;11543;43.144;24.684;2023-12-14T07:05:33;97890.53;;;7.84;77.17
22753;BME280;11543;43.144;24.684;2023-12-14T07:07:58;97881.56;;;7.93;76.77
22753;BME280;11543;43.144;24.684;2023-12-14T07:10:24;97884.78;;;8.13;76.59
22753;BME280;11543;43.144;24.684;2023-12-14T07:12:50;97906.34;;;8.19;76.47
22753;BME280;11543;43.144;24.684;2023-12-14T07:15:19;97880.94;;;8.07;76.02
22753;BME280;11543;43.144;24.684;2023-12-14T07:17:44;97891.47;;;8.17;75.70
22753;BME280;11543;43.144;24.684;2023-12-14T07:20:11;97945.34;;;8.46;75.91
22753;BME280;11543;43.144;24.684;2023-12-14T07:22:37;97952.53;;;8.54;75.81
22753;BME280;11543;43.144;24.684;2023-12-14T07:25:03;97962.41;;;8.53;75.53
22753;BME280;11543;43.144;24.684;2023-12-14T07:27:29;97966.59;;;8.56;75.12
22753;BME280;11543;43.144;24.684;2023-12-14T07:29:55;97969.94;;;8.58;75.12
22753;BME280;11543;43.144;24.684;2023-12-14T07:32:20;97964.75;;;8.65;75.38
22753;BME280;11543;43.144;24.684;2023-12-14T07:34:46;97962.97;;;8.73;75.37
22753;BME280;11543;43.144;24.684;2023-12-14T07:37:12;97939.41;;;8.69;75.11
22753;BME280;11543;43.144;24.684;2023-12-14T07:39:38;97993.75;;;9.02;75.13
22753;BME280;11543;43.144;24.684;2023-12-14T07:42:04;97995.44;;;9.11;74.76
22753;BME280;11543;43.144;24.684;2023-12-14T07:44:30;97994.59;;;9.18;74.36
22753;BME280;11543;43.144;24.684;2023-12-14T07:46:56;97989.06;;;9.28;73.67
22753;BME280;11543;43.144;24.684;2023-12-14T07:49:22;98005.31;;;9.35;73.74
22753;BME280;11543;43.144;24.684;2023-12-14T07:51:49;98009.47;;;9.37;73.34
22753;BME280;11543;43.144;24.684;2023-12-14T07:54:15;98012.84;;;9.31;73.30
22753;BME280;11543;43.144;24.684;2023-12-14T07:56:40;98006.47;;;9.32;73.17
22753;BME280;11543;43.144;24.684;2023-12-14T07:59:06;98021.69;;;9.32;73.19
22753;BME280;11543;43.144;24.684;2023-12-14T08:01:33;98038.25;;;9.35;73.32
22753;BME280;11543;43.144;24.684;2023-12-14T08:03:59;98016.84;;;9.35;73.27
22753;BME280;11543;43.144;24.684;2023-12-14T08:06:24;98048.66;;;9.54;73.44
22753;BME280;11543;43.144;24.684;2023-12-14T08:08:50;98026.22;;;9.39;73.82
22753;BME280;11543;43.144;24.684;2023-12-14T08:11:16;98045.97;;;9.46;74.01
22753;BME280;11543;43.144;24.684;2023-12-14T08:13:42;98049.81;;;9.52;74.33
22753;BME280;11543;43.144;24.684;2023-12-14T08:16:08;98046.81;;;9.63;73.85
22753;BME280;11543;43.144;24.684;2023-12-14T08:18:33;98056.19;;;9.75;74.06
22753;BME280;11543;43.144;24.684;2023-12-14T08:20:59;98078.44;;;9.92;74.10
22753;BME280;11543;43.144;24.684;2023-12-14T08:23:24;98075.41;;;9.87;74.03
22753;BME280;11543;43.144;24.684;2023-12-14T08:25:53;98063.88;;;9.86;74.08
22753;BME280;11543;43.144;24.684;2023-12-14T08:28:28;98057.81;;;10.01;73.33
22753;BME280;11543;43.144;24.684;2023-12-14T08:30:53;98077.72;;;10.14;73.63
22753;BME280;11543;43.144;24.684;2023-12-14T08:33:19;98070.50;;;10.15;73.36
22753;BME280;11543;43.144;24.684;2023-12-14T08:35:44;98088.44;;;10.23;73.84
22753;BME280;11543;43.144;24.684;2023-12-14T08:38:10;98066.97;;;10.31;73.26
22753;BME280;11543;43.144;24.684;2023-12-14T08:40:37;98070.47;;;10.39;73.45
22753;BME280;11543;43.144;24.684;2023-12-14T08:43:04;98082.84;;;10.57;73.72
22753;BME280;11543;43.144;24.684;2023-12-14T08:45:30;98094.88;;;10.61;73.33
22753;BME280;11543;43.144;24.684;2023-12-14T08:47:57;98071.63;;;10.53;73.75
22753;BME280;11543;43.144;24.684;2023-12-14T08:50:31;98081.31;;;10.62;74.90
22753;BME280;11543;43.144;24.684;2023-12-14T08:52:57;98073.28;;;10.54;75.68
22753;BME280;11543;43.144;24.684;2023-12-14T08:55:26;98067.28;;;10.44;76.05
22753;BME280;11543;43.144;24.684;2023-12-14T08:57:52;98073.31;;;10.46;76.80
22753;BME280;11543;43.144;24.684;2023-12-14T09:00:18;98091.34;;;10.68;76.54
22753;BME280;11543;43.144;24.684;2023-12-14T09:02:44;98110.63;;;10.64;76.67
22753;BME280;11543;43.144;24.684;2023-12-14T09:05:14;98106.25;;;10.71;77.57
22753;BME280;11543;43.144;24.684;2023-12-14T09:07:41;98084.97;;;10.69;77.22
22753;BME280;11543;43.144;24.684;2023-12-14T09:10:07;98077.75;;;10.70;77.31
22753;BME280;11543;43.144;24.684;2023-12-14T09:12:33;98095.47;;;10.79;76.85
22753;BME280;11543;43.144;24.684;2023-12-14T09:15:00;98096.97;;;10.81;76.97
22753;BME280;11543;43.144;24.684;2023-12-14T09:17:26;98090.25;;;10.85;76.89
22753;BME280;11543;43.144;24.684;2023-12-14T09:19:52;98051.88;;;10.77;76.78
22753;BME280;11543;43.144;24.684;2023-12-14T09:22:17;98082.81;;;10.96;76.71
22753;BME280;11543;43.144;24.684;2023-12-14T09:24:43;98090.59;;;11.13;77.65
22753;BME280;11543;43.144;24.684;2023-12-14T09:27:08;98077.66;;;11.17;77.80
22753;BME280;11543;43.144;24.684;2023-12-14T09:29:34;98070.22;;;11.27;78.13
22753;BME280;11543;43.144;24.684;2023-12-14T09:32:00;98070.28;;;11.42;77.47
22753;BME280;11543;43.144;24.684;2023-12-14T09:34:25;98062.72;;;11.45;76.46
22753;BME280;11543;43.144;24.684;2023-12-14T09:36:51;98067.38;;;11.52;75.95
22753;BME280;11543;43.144;24.684;2023-12-14T09:39:17;98080.00;;;11.66;76.24
22753;BME280;11543;43.144;24.684;2023-12-14T09:41:44;98093.25;;;11.90;75.23
22753;BME280;11543;43.144;24.684;2023-12-14T09:44:11;98058.97;;;11.92;75.89
22753;BME280;11543;43.144;24.684;2023-12-14T09:46:38;98084.63;;;12.18;74.54
22753;BME280;11543;43.144;24.684;2023-12-14T09:49:04;98074.44;;;12.28;73.82
22753;BME280;11543;43.144;24.684;2023-12-14T09:51:30;98073.22;;;12.45;73.37
22753;BME280;11543;43.144;24.684;2023-12-14T09:53:56;98043.75;;;12.37;73.24
22753;BME280;11543;43.144;24.684;2023-12-14T09:56:26;98050.41;;;12.56;72.81
22753;BME280;11543;43.144;24.684;2023-12-14T09:58:53;98061.97;;;12.71;72.44
22753;BME280;11543;43.144;24.684;2023-12-14T10:01:26;98089.72;;;12.86;72.07
22753;BME280;11543;43.144;24.684;2023-12-14T10:04:18;98087.38;;;12.98;72.20
22753;BME280;11543;43.144;24.684;2023-12-14T10:06:46;98069.53;;;12.97;71.38
22753;BME280;11543;43.144;24.684;2023-12-14T10:09:13;98055.53;;;13.01;71.49
22753;BME280;11543;43.144;24.684;2023-12-14T10:11:42;98066.94;;;13.18;71.56
22753;BME280;11543;43.144;24.684;2023-12-14T10:14:21;98066.19;;;13.24;70.92
22753;BME280;11543;43.144;24.684;2023-12-14T10:16:48;98066.84;;;13.26;70.36
22753;BME280;11543;43.144;24.684;2023-12-14T10:19:16;98072.78;;;13.22;71.30
22753;BME280;11543;43.144;24.684;2023-12-14T10:21:42;98051.91;;;13.09;71.24
22753;BME280;11543;43.144;24.684;2023-12-14T10:24:07;98031.47;;;13.00;71.00
22753;BME280;11543;43.144;24.684;2023-12-14T10:26:33;98049.47;;;13.14;71.94
22753;BME280;11543;43.144;24.684;2023-12-14T10:28:59;98062.69;;;13.09;70.67
22753;BME280;11543;43.144;24.684;2023-12-14T10:31:24;98064.25;;;13.18;71.07
22753;BME280;11543;43.144;24.684;2023-12-14T10:33:51;98060.03;;;13.30;71.53
22753;BME280;11543;43.144;24.684;2023-12-14T10:36:22;98042.41;;;13.28;70.59
22753;BME280;11543;43.144;24.684;2023-12-14T10:38:53;98055.81;;;13.43;69.46
22753;BME280;11543;43.144;24.684;2023-12-14T10:41:23;98042.72;;;13.39;70.23
22753;BME280;11543;43.144;24.684;2023-12-14T10:43:50;98025.28;;;13.35;70.00
22753;BME280;11543;43.144;24.684;2023-12-14T10:46:19;98035.34;;;13.48;69.12
22753;BME280;11543;43.144;24.684;2023-12-14T10:48:47;98044.13;;;13.57;68.99
22753;BME280;11543;43.144;24.684;2023-12-14T10:51:14;98060.78;;;13.67;68.40
22753;BME280;11543;43.144;24.684;2023-12-14T10:53:41;98060.03;;;13.73;68.25
22753;BME280;11543;43.144;24.684;2023-12-14T10:56:12;98057.84;;;13.62;67.76
22753;BME280;11543;43.144;24.684;2023-12-14T10:58:54;98059.50;;;13.63;67.83
22753;BME280;11543;43.144;24.684;2023-12-14T11:01:23;98069.06;;;13.65;68.11
22753;BME280;11543;43.144;24.684;2023-12-14T11:03:50;98054.50;;;13.60;69.00
22753;BME280;11543;43.144;24.684;2023-12-14T11:08:56;98057.47;;;13.65;67.74
22753;BME280;11543;43.144;24.684;2023-12-14T11:11:21;98081.84;;;13.78;67.99
22753;BME280;11543;43.144;24.684;2023-12-14T11:13:52;98079.59;;;13.82;67.79
22753;BME280;11543;43.144;24.684;2023-12-14T11:16:21;98076.44;;;13.78;67.45
22753;BME280;11543;43.144;24.684;2023-12-14T11:18:47;98076.25;;;13.80;67.74
22753;BME280;11543;43.144;24.684;2023-12-14T11:21:18;98086.34;;;13.92;67.59
22753;BME280;11543;43.144;24.684;2023-12-14T11:23:50;98071.38;;;13.68;66.88
22753;BME280;11543;43.144;24.684;2023-12-14T11:26:21;98070.28;;;13.63;67.41
22753;BME280;11543;43.144;24.684;2023-12-14T11:28:50;98083.13;;;13.61;66.99
22753;BME280;11543;43.144;24.684;2023-12-14T11:31:16;98084.81;;;13.62;67.48
22753;BME280;11543;43.144;24.684;2023-12-14T11:33:43;98080.25;;;13.62;67.21
22753;BME280;11543;43.144;24.684;2023-12-14T11:36:11;98077.47;;;13.77;67.67
22753;BME280;11543;43.144;24.684;2023-12-14T11:38:37;98053.63;;;13.53;67.52
22753;BME280;11543;43.144;24.684;2023-12-14T11:41:03;98068.09;;;13.73;67.77
22753;BME280;11543;43.144;24.684;2023-12-14T11:43:28;98031.69;;;13.56;67.42
22753;BME280;11543;43.144;24.684;2023-12-14T11:45:54;98072.97;;;13.84;67.24
22753;BME280;11543;43.144;24.684;2023-12-14T11:48:21;98073.88;;;13.91;67.28
22753;BME280;11543;43.144;24.684;2023-12-14T11:50:47;98082.63;;;13.93;67.13
22753;BME280;11543;43.144;24.684;2023-12-14T11:53:13;98058.69;;;13.62;67.54
22753;BME280;11543;43.144;24.684;2023-12-14T11:55:42;98100.72;;;13.78;67.41
22753;BME280;11543;43.144;24.684;2023-12-14T11:58:09;98096.97;;;13.79;67.81
22753;BME280;11543;43.144;24.684;2023-12-14T12:00:36;98081.78;;;13.71;67.49
22753;BME280;11543;43.144;24.684;2023-12-14T12:03:12;98082.88;;;13.77;67.51
22753;BME280;11543;43.144;24.684;2023-12-14T12:05:42;98087.22;;;13.78;67.77
22753;BME280;11543;43.144;24.684;2023-12-14T12:08:10;98079.59;;;13.82;67.79
22753;BME280;11543;43.144;24.684;2023-12-14T12:10:37;98078.75;;;13.81;67.77
22753;BME280;11543;43.144;24.684;2023-12-14T12:13:05;98060.28;;;13.78;67.85
22753;BME280;11543;43.144;24.684;2023-12-14T12:15:32;98045.50;;;13.74;67.12
22753;BME280;11543;43.144;24.684;2023-12-14T12:17:58;98067.97;;;13.81;66.78
22753;BME280;11543;43.144;24.684;2023-12-14T12:20:24;98074.63;;;13.85;66.71
22753;BME280;11543;43.144;24.684;2023-12-14T12:22:51;98067.47;;;13.92;66.35
22753;BME280;11543;43.144;24.684;2023-12-14T12:25:16;98043.94;;;13.86;66.51
22753;BME280;11543;43.144;24.684;2023-12-14T12:27:42;98060.66;;;13.96;66.47
22753;BME280;11543;43.144;24.684;2023-12-14T12:30:09;98063.59;;;14.01;66.23
22753;BME280;11543;43.144;24.684;2023-12-14T12:32:35;98089.78;;;14.08;66.37
22753;BME280;11543;43.144;24.684;2023-12-14T12:35:00;98095.19;;;14.08;66.44
22753;BME280;11543;43.144;24.684;2023-12-14T12:37:26;98094.03;;;13.95;66.58
22753;BME280;11543;43.144;24.684;2023-12-14T12:39:51;98092.97;;;13.90;66.58
22753;BME280;11543;43.144;24.684;2023-12-14T12:42:17;98099.88;;;13.78;66.46
22753;BME280;11543;43.144;24.684;2023-12-14T12:44:43;98106.75;;;13.80;66.45
22753;BME280;11543;43.144;24.684;2023-12-14T12:47:08;98108.09;;;13.69;66.36
22753;BME280;11543;43.144;24.684;2023-12-14T12:49:34;98093.59;;;13.70;66.95
22753;BME280;11543;43.144;24.684;2023-12-14T12:51:59;98123.03;;;13.72;66.24
22753;BME280;11543;43.144;24.684;2023-12-14T12:54:25;98116.13;;;13.63;66.73
22753;BME280;11543;43.144;24.684;2023-12-14T12:56:50;98132.63;;;13.75;66.70